Williamstown, MA (01267)

8:25 PM EST on February 05, 2016 (GMT -0500)
North Hoosac Rd | | Change Station
CLOSE
Current Station
Personal Weather Station
Location: Williamstown, MA
Elevation: 646 ft
Nearby Weather Stations

Elev 646 ft 42.72 °N, 73.19 °W | Updated 11 minutes ago

Clear
Clear
24.1 °F
Feels Like 24 °F
N
0.0
Wind Variable Wind from ESE

Today
High -- | Low -- °F
--% Chance of Precip.
Yesterday
High -- | Low -- °F
Precip. -- in
Pressure 30.25 in
Visibility 10.0 miles
Clouds Clear
Windchill 24 °F
Dew Point 17 °F
Humidity 75%
Rainfall 0.00 in
Snow Depth Not available.
7:03 AM 5:10 PM
Waning Crescent, 8% visible
METAR KAQW 060052Z AUTO 24006KT 10SM CLR M03/M09 A3022 RMK AO2 SLP242 T10331089
Pressure 30.25 in
Visibility 10.0 miles
Clouds Clear
Windchill 24 °F
Dew Point 17 °F
Humidity 75%
Rainfall 0.00 in
Snow Depth Not available.
7:03 AM 5:10 PM
Waning Crescent, 8% visible
METAR KAQW 060052Z AUTO 24006KT 10SM CLR M03/M09 A3022 RMK AO2 SLP242 T10331089

10-Day Weather Forecast

Almanac

Astronomy

Feb. 05, 2016 Rise Set
Actual Time
Civil Twilight
Nautical Twilight
Astronomical Twilight
Moon
Length of Visible Light
Length of Day
Tomorrow will be .
, % of the Moon is Illuminated

Today's Extremes

State Highs State Lows

Community

WunderPhotos

Upload Photos

1,890,904 photos uploaded!

WunderBlog® & News

Nearby

Air Quality

  Air Quality AQ Index Pollutant
Not available.

Snow Depth

Station Depth Elevation

Earthquake Activity

City Distance Mag. Time & Date
Minimum magnitude displayed is 2.5.

Coastal Water Temperatures

Place Temperature

Stations

Nearby Weather Stations

Station Location Temp. Windchill Dew Point Humidity Wind Precip. Elev Updated Type
                   

Watches & Warnings

There are currently no watches in effect.